createdAt,value
2022-08-30T00:01:03.972Z,99510.97
2022-08-30T00:02:06.745Z,99511.31
2022-08-30T00:03:12.251Z,99500.88
2022-08-30T00:04:14.640Z,99510.16
2022-08-30T00:05:17.685Z,99512.81
2022-08-30T00:06:20.872Z,99505.91
2022-08-30T00:07:23.394Z,99510.19
2022-08-30T00:08:25.628Z,99507.13
2022-08-30T00:09:27.910Z,99503.31
2022-08-30T00:10:30.371Z,99514.56
2022-08-30T00:11:33.611Z,99515.53
2022-08-30T00:12:36.470Z,99519.88
2022-08-30T00:13:42.045Z,99514.69
2022-08-30T00:14:44.303Z,99515.75
2022-08-30T00:15:47.259Z,99523.00
2022-08-30T00:16:50.808Z,99518.00
2022-08-30T00:17:54.037Z,99520.44
2022-08-30T00:18:56.913Z,99518.66
2022-08-30T00:20:00.311Z,99513.03
2022-08-30T00:21:04.856Z,99512.50
2022-08-30T00:22:07.245Z,99512.06
2022-08-30T00:23:09.584Z,99520.88
2022-08-30T00:24:11.846Z,99521.75
2022-08-30T00:25:15.903Z,99521.63
2022-08-30T00:26:18.321Z,99522.06
2022-08-30T00:27:20.584Z,99513.88
2022-08-30T00:28:22.946Z,99520.38
2022-08-30T00:29:25.263Z,99529.41
2022-08-30T00:30:27.554Z,99516.22
2022-08-30T00:31:29.855Z,99526.03
2022-08-30T00:32:32.273Z,99526.88
2022-08-30T00:33:34.800Z,99528.56
2022-08-30T00:34:37.014Z,99519.84
2022-08-30T00:35:39.951Z,99524.31
2022-08-30T00:36:44.046Z,99526.88
2022-08-30T00:37:47.667Z,99532.28
2022-08-30T00:38:49.973Z,99530.59
2022-08-30T00:39:52.293Z,99526.13
2022-08-30T00:40:55.117Z,99530.50
2022-08-30T00:41:57.322Z,99527.81
2022-08-30T00:43:05.626Z,99534.84
2022-08-30T00:44:08.334Z,99520.56
2022-08-30T00:45:12.694Z,99513.78
2022-08-30T00:46:15.245Z,99530.28
2022-08-30T00:47:18.663Z,99531.09
2022-08-30T00:48:21.074Z,99529.19
2022-08-30T00:49:24.439Z,99525.69
2022-08-30T00:50:35.926Z,99531.88
2022-08-30T00:51:39.429Z,99524.72
2022-08-30T00:52:46.335Z,99533.16
2022-08-30T00:53:53.669Z,99525.69
2022-08-30T00:54:55.987Z,99523.53
2022-08-30T00:56:00.332Z,99525.78
2022-08-30T00:57:04.071Z,99517.09
2022-08-30T00:58:09.917Z,99524.88
2022-08-30T00:59:12.280Z,99519.84
2022-08-30T01:00:16.226Z,99520.06
2022-08-30T01:01:19.423Z,99517.00
2022-08-30T01:02:23.701Z,99525.72
2022-08-30T01:03:28.587Z,99526.44
2022-08-30T01:04:33.450Z,99524.03
2022-08-30T01:05:39.614Z,99525.84
2022-08-30T01:06:41.905Z,99520.94
2022-08-30T01:07:44.275Z,99512.31
2022-08-30T01:08:47.980Z,99519.22
2022-08-30T01:09:50.965Z,99526.38
2022-08-30T01:10:54.810Z,99525.31
2022-08-30T01:11:57.754Z,99524.91
2022-08-30T01:13:00.816Z,99520.00
2022-08-30T01:14:04.849Z,99525.41
2022-08-30T01:15:09.357Z,99515.50
2022-08-30T01:16:11.671Z,99520.72
2022-08-30T01:17:15.265Z,99529.56
2022-08-30T01:18:22.385Z,99524.75
2022-08-30T01:19:38.544Z,99527.53
2022-08-30T01:20:51.881Z,99528.50
2022-08-30T01:22:00.133Z,99532.44
2022-08-30T01:23:16.433Z,99536.56
2022-08-30T01:24:20.635Z,99522.50
2022-08-30T01:25:27.573Z,99519.22
2022-08-30T01:26:31.919Z,99516.16
2022-08-30T01:27:37.558Z,99518.28
2022-08-30T01:28:40.389Z,99523.81
2022-08-30T01:29:45.030Z,99529.03
2022-08-30T01:30:47.630Z,99515.28
2022-08-30T01:31:50.133Z,99518.78
2022-08-30T01:32:58.285Z,99516.34
2022-08-30T01:34:01.835Z,99511.88
2022-08-30T01:35:04.321Z,99514.88
2022-08-30T01:36:13.061Z,99520.75
2022-08-30T01:37:34.118Z,99522.97
2022-08-30T01:38:41.549Z,99518.28
2022-08-30T01:39:46.351Z,99521.25
2022-08-30T01:40:49.951Z,99513.97
2022-08-30T01:41:52.782Z,99512.06
2022-08-30T01:42:55.127Z,99508.66
2022-08-30T01:43:59.762Z,99510.19
2022-08-30T01:45:02.251Z,99512.22
2022-08-30T01:46:04.985Z,99512.84
2022-08-30T01:47:07.495Z,99519.31
2022-08-30T01:48:12.721Z,99515.94
2022-08-30T01:49:18.969Z,99518.75
2022-08-30T01:50:30.217Z,99512.59
2022-08-30T01:51:33.057Z,99511.59
2022-08-30T01:52:35.425Z,99514.44
2022-08-30T01:53:39.396Z,99516.09
2022-08-30T01:54:43.865Z,99514.91
2022-08-30T01:55:46.139Z,99509.22
2022-08-30T01:56:48.411Z,99510.16
2022-08-30T01:57:51.020Z,99512.16
2022-08-30T01:58:53.994Z,99514.00
2022-08-30T01:59:56.262Z,99516.13
2022-08-30T02:00:58.629Z,99516.91
2022-08-30T02:02:00.858Z,99512.34
2022-08-30T02:03:03.344Z,99514.34
2022-08-30T02:04:07.607Z,99519.53
2022-08-30T02:05:10.178Z,99516.41
2022-08-30T02:06:15.439Z,99521.53
2022-08-30T02:07:17.657Z,99521.63
2022-08-30T02:08:19.935Z,99523.69
2022-08-30T02:09:22.116Z,99519.53
2022-08-30T02:10:24.506Z,99519.41
2022-08-30T02:11:26.803Z,99522.25
2022-08-30T02:12:30.296Z,99519.13
2022-08-30T02:13:33.715Z,99521.44
2022-08-30T02:14:37.372Z,99512.63
2022-08-30T02:15:41.779Z,99507.84
2022-08-30T02:16:44.363Z,99509.25
2022-08-30T02:17:46.790Z,99497.81
2022-08-30T02:18:50.123Z,99505.78
2022-08-30T02:19:52.404Z,99504.66
2022-08-30T02:20:54.736Z,99501.53
2022-08-30T02:21:57.040Z,99500.75
2022-08-30T02:23:01.374Z,99506.13
2022-08-30T02:24:04.135Z,99507.31
2022-08-30T02:25:09.824Z,99505.47
2022-08-30T02:26:23.627Z,99509.16
2022-08-30T02:27:26.734Z,99510.56
2022-08-30T02:28:29.141Z,99506.69
2022-08-30T02:29:31.537Z,99508.97
2022-08-30T02:30:34.481Z,99499.94
2022-08-30T02:31:36.808Z,99508.88
2022-08-30T02:32:39.199Z,99504.72
2022-08-30T02:33:41.395Z,99510.97
2022-08-30T02:34:44.611Z,99500.19
2022-08-30T02:35:47.020Z,99515.56
2022-08-30T02:36:49.346Z,99507.69
2022-08-30T02:37:52.143Z,99509.38
2022-08-30T02:38:54.410Z,99513.25
2022-08-30T02:39:56.687Z,99501.88
2022-08-30T02:40:59.047Z,99505.41
2022-08-30T02:42:01.687Z,99507.97
2022-08-30T02:43:03.925Z,99505.59
2022-08-30T02:44:07.545Z,99504.31
2022-08-30T02:45:10.319Z,99501.78
2022-08-30T02:46:12.983Z,99495.53
2022-08-30T02:47:15.262Z,99490.41
2022-08-30T02:48:17.532Z,99498.47
2022-08-30T02:49:35.202Z,99500.00
2022-08-30T02:50:45.998Z,99495.34
2022-08-30T02:51:48.258Z,99499.72
2022-08-30T02:52:50.610Z,99500.41
2022-08-30T02:53:52.837Z,99493.69
2022-08-30T02:54:55.281Z,99510.97
2022-08-30T02:55:57.939Z,99497.81
2022-08-30T02:57:04.593Z,99503.09
2022-08-30T02:58:08.014Z,99495.34
2022-08-30T02:59:10.349Z,99502.16
2022-08-30T03:00:17.293Z,99494.78
2022-08-30T03:01:19.804Z,99499.81
2022-08-30T03:02:22.197Z,99504.28
2022-08-30T03:03:25.327Z,99493.19
2022-08-30T03:04:27.775Z,99501.41
2022-08-30T03:05:32.940Z,99500.19
2022-08-30T03:06:35.733Z,99497.25
2022-08-30T03:07:38.118Z,99498.03
2022-08-30T03:08:41.295Z,99497.34
2022-08-30T03:09:43.597Z,99495.06
2022-08-30T03:10:46.029Z,99493.81
2022-08-30T03:11:48.267Z,99496.56
2022-08-30T03:12:50.689Z,99489.47
2022-08-30T03:13:53.000Z,99500.53
2022-08-30T03:14:55.352Z,99496.13
2022-08-30T03:15:57.650Z,99496.84
2022-08-30T03:16:59.858Z,99496.19
2022-08-30T03:18:02.330Z,99482.84
2022-08-30T03:19:04.770Z,99490.16
2022-08-30T03:20:08.838Z,99501.22
2022-08-30T03:21:13.121Z,99484.81
2022-08-30T03:22:15.807Z,99492.41
2022-08-30T03:23:21.645Z,99485.50
2022-08-30T03:24:24.707Z,99485.94
2022-08-30T03:25:27.491Z,99488.97
2022-08-30T03:26:29.741Z,99486.16
2022-08-30T03:27:32.018Z,99488.69
2022-08-30T03:28:34.657Z,99472.53
2022-08-30T03:29:36.980Z,99478.09
2022-08-30T03:30:39.397Z,99485.78
2022-08-30T03:31:53.636Z,99476.44
2022-08-30T03:32:56.205Z,99476.91
2022-08-30T03:33:58.430Z,99474.72
2022-08-30T03:35:01.005Z,99489.38
2022-08-30T03:36:04.004Z,99486.06
2022-08-30T03:37:06.730Z,99486.94
2022-08-30T03:38:08.989Z,99479.72
2022-08-30T03:39:12.524Z,99490.78
2022-08-30T03:40:20.010Z,99485.28
2022-08-30T03:41:22.369Z,99481.53
2022-08-30T03:42:25.461Z,99472.31
2022-08-30T03:43:27.701Z,99478.09
2022-08-30T03:44:31.569Z,99477.63
2022-08-30T03:45:33.880Z,99471.00
2022-08-30T03:46:37.628Z,99477.69
2022-08-30T03:47:41.066Z,99479.69
2022-08-30T03:48:44.432Z,99484.03
2022-08-30T03:49:46.660Z,99492.22
2022-08-30T03:50:48.916Z,99482.94
2022-08-30T03:51:51.855Z,99491.50
2022-08-30T03:52:54.250Z,99496.88
2022-08-30T03:53:56.495Z,99488.22
2022-08-30T03:55:00.658Z,99493.75
2022-08-30T03:56:03.690Z,99488.78
2022-08-30T03:57:06.757Z,99488.84
2022-08-30T03:58:09.057Z,99483.66
2022-08-30T03:59:11.473Z,99480.34
2022-08-30T04:00:16.272Z,99486.50
2022-08-30T04:01:18.880Z,99487.44
2022-08-30T04:02:21.236Z,99484.78
2022-08-30T04:03:25.947Z,99487.19
2022-08-30T04:04:28.264Z,99489.44
2022-08-30T04:05:30.575Z,99495.03
2022-08-30T04:06:33.250Z,99489.28
2022-08-30T04:07:35.596Z,99484.75
2022-08-30T04:08:38.862Z,99499.50
2022-08-30T04:09:41.772Z,99497.91
2022-08-30T04:10:44.162Z,99498.41
2022-08-30T04:11:46.588Z,99498.06
2022-08-30T04:12:50.315Z,99494.16
2022-08-30T04:13:53.307Z,99502.19
2022-08-30T04:14:55.661Z,99488.34
2022-08-30T04:15:57.977Z,99492.03
2022-08-30T04:17:00.238Z,99493.81
2022-08-30T04:18:02.519Z,99496.91
2022-08-30T04:19:04.873Z,99491.88
2022-08-30T04:20:07.937Z,99496.53
2022-08-30T04:21:13.898Z,99495.38
2022-08-30T04:22:16.616Z,99500.25
2022-08-30T04:23:19.594Z,99499.78
2022-08-30T04:24:21.870Z,99504.00
2022-08-30T04:25:24.277Z,99509.00
2022-08-30T04:26:27.634Z,99508.44
2022-08-30T04:27:32.321Z,99499.63
2022-08-30T04:28:35.895Z,99503.47
2022-08-30T04:29:38.542Z,99509.38
2022-08-30T04:30:43.413Z,99501.09
2022-08-30T04:31:46.276Z,99507.47
2022-08-30T04:32:48.939Z,99510.91
2022-08-30T04:33:51.275Z,99511.66
2022-08-30T04:34:58.279Z,99515.50
2022-08-30T04:36:06.074Z,99505.50
2022-08-30T04:37:09.810Z,99511.75
2022-08-30T04:38:13.739Z,99503.34
2022-08-30T04:39:17.897Z,99510.13
2022-08-30T04:40:20.479Z,99506.00
2022-08-30T04:41:24.300Z,99508.50
2022-08-30T04:42:31.996Z,99507.31
2022-08-30T04:43:34.303Z,99506.84
2022-08-30T04:44:36.529Z,99512.53
2022-08-30T04:45:40.056Z,99502.25
2022-08-30T04:46:44.531Z,99503.47
2022-08-30T04:47:47.372Z,99506.66
2022-08-30T04:48:49.913Z,99503.19
2022-08-30T04:49:52.986Z,99507.16
2022-08-30T04:50:55.258Z,99510.50
2022-08-30T04:51:57.520Z,99504.34
2022-08-30T04:52:59.753Z,99517.03
2022-08-30T04:54:02.164Z,99508.03
2022-08-30T04:55:06.739Z,99515.97
2022-08-30T04:56:22.322Z,99516.59
2022-08-30T04:57:25.657Z,99524.72
2022-08-30T04:58:27.936Z,99520.53
2022-08-30T04:59:30.178Z,99520.53
2022-08-30T05:00:32.591Z,99531.91
2022-08-30T05:01:44.666Z,99531.53
2022-08-30T05:02:48.962Z,99525.38
2022-08-30T05:03:53.519Z,99515.78
2022-08-30T05:05:14.290Z,99520.53
2022-08-30T05:06:17.222Z,99509.72
2022-08-30T05:07:19.480Z,99518.38
2022-08-30T05:08:24.814Z,99515.50
2022-08-30T05:09:27.222Z,99517.84
2022-08-30T05:10:29.678Z,99516.47
2022-08-30T05:11:32.004Z,99521.34
2022-08-30T05:12:34.560Z,99518.41
2022-08-30T05:13:37.401Z,99517.31
2022-08-30T05:14:39.707Z,99506.06
2022-08-30T05:15:42.277Z,99510.97
2022-08-30T05:16:45.587Z,99505.91
2022-08-30T05:17:48.298Z,99502.50
2022-08-30T05:18:53.816Z,99497.00
2022-08-30T05:19:56.062Z,99504.47
2022-08-30T05:21:12.743Z,99501.13
2022-08-30T05:22:14.953Z,99495.53
2022-08-30T05:23:17.479Z,99499.81
2022-08-30T05:24:20.692Z,99501.88
2022-08-30T05:25:26.561Z,99504.19
2022-08-30T05:26:31.955Z,99494.84
2022-08-30T05:27:34.443Z,99502.03
2022-08-30T05:28:40.315Z,99506.34
2022-08-30T05:29:42.564Z,99510.94
2022-08-30T05:30:44.849Z,99503.44
2022-08-30T05:31:47.233Z,99502.19
2022-08-30T05:32:50.108Z,99506.84
2022-08-30T05:33:53.739Z,99502.06
2022-08-30T05:34:55.956Z,99508.19
2022-08-30T05:35:58.539Z,99504.19
2022-08-30T05:37:02.848Z,99507.31
2022-08-30T05:38:05.099Z,99515.25
2022-08-30T05:39:10.450Z,99522.09
2022-08-30T05:40:17.419Z,99509.34
2022-08-30T05:41:22.046Z,99524.72
2022-08-30T05:42:24.298Z,99529.81
2022-08-30T05:43:26.849Z,99526.59
2022-08-30T05:44:32.396Z,99531.50
2022-08-30T05:45:34.713Z,99522.94
2022-08-30T05:46:37.478Z,99539.13
2022-08-30T05:47:39.956Z,99526.78
2022-08-30T05:48:42.253Z,99533.81
2022-08-30T05:49:44.613Z,99542.66
2022-08-30T05:50:46.852Z,99532.94
2022-08-30T05:51:49.221Z,99529.75
2022-08-30T05:52:51.476Z,99528.66
2022-08-30T05:53:57.106Z,99530.84
2022-08-30T05:54:59.521Z,99539.22
2022-08-30T05:56:04.775Z,99540.28
2022-08-30T05:57:08.156Z,99533.75
2022-08-30T05:58:10.370Z,99525.16
2022-08-30T05:59:14.266Z,99537.66
2022-08-30T06:00:18.122Z,99528.84
2022-08-30T06:01:26.208Z,99532.13
2022-08-30T06:02:28.528Z,99524.63
2022-08-30T06:03:32.899Z,99529.91
2022-08-30T06:04:36.686Z,99528.50
2022-08-30T06:05:39.010Z,99529.03
2022-08-30T06:06:43.514Z,99532.19
2022-08-30T06:07:45.767Z,99536.09
2022-08-30T06:08:48.890Z,99518.75
2022-08-30T06:09:51.211Z,99526.16
2022-08-30T06:10:53.676Z,99526.03
2022-08-30T06:11:56.060Z,99524.16
2022-08-30T06:12:58.807Z,99524.41
2022-08-30T06:14:01.736Z,99523.00
2022-08-30T06:15:04.358Z,99521.31
2022-08-30T06:16:07.021Z,99519.78
2022-08-30T06:17:09.378Z,99513.47
2022-08-30T06:18:12.843Z,99525.41
2022-08-30T06:19:16.274Z,99519.41
2022-08-30T06:20:20.153Z,99519.59
2022-08-30T06:21:30.889Z,99519.63
2022-08-30T06:22:33.096Z,99518.13
2022-08-30T06:23:35.382Z,99520.09
2022-08-30T06:24:56.289Z,99527.28
2022-08-30T06:26:07.385Z,99515.94
2022-08-30T06:27:10.851Z,99528.22
2022-08-30T06:28:13.298Z,99528.53
2022-08-30T06:29:18.164Z,99525.91
2022-08-30T06:30:20.473Z,99527.34
2022-08-30T06:31:24.541Z,99520.31
2022-08-30T06:32:26.888Z,99523.34
2022-08-30T06:33:29.142Z,99525.69
2022-08-30T06:34:31.331Z,99510.28
2022-08-30T06:35:38.077Z,99514.16
2022-08-30T06:36:44.612Z,99516.97
2022-08-30T06:37:46.790Z,99535.06
2022-08-30T06:38:57.026Z,99523.25
2022-08-30T06:40:00.595Z,99523.97
2022-08-30T06:45:44.965Z,99524.66
2022-08-30T06:46:47.936Z,99518.00
2022-08-30T06:47:50.325Z,99517.53
2022-08-30T06:48:53.464Z,99511.94
2022-08-30T06:49:59.215Z,99525.00
2022-08-30T06:51:01.616Z,99519.34
2022-08-30T06:52:05.175Z,99515.94
2022-08-30T06:53:08.538Z,99513.50
2022-08-30T06:54:12.352Z,99517.72
2022-08-30T06:55:16.689Z,99529.81
2022-08-30T06:56:19.878Z,99527.25
2022-08-30T06:57:22.159Z,99531.16
2022-08-30T06:58:24.807Z,99532.19
2022-08-30T06:59:27.309Z,99526.28
2022-08-30T07:00:30.135Z,99533.28
2022-08-30T07:01:32.738Z,99535.22
2022-08-30T07:02:44.248Z,99525.53
2022-08-30T07:03:46.882Z,99542.41
2022-08-30T07:04:49.527Z,99534.28
2022-08-30T07:05:51.849Z,99530.41
2022-08-30T07:06:54.365Z,99543.75
2022-08-30T07:07:56.758Z,99544.34
2022-08-30T07:08:59.190Z,99539.22
2022-08-30T07:10:05.744Z,99543.88
2022-08-30T07:11:08.629Z,99545.19
2022-08-30T07:12:12.099Z,99534.53
2022-08-30T07:13:14.755Z,99541.81
2022-08-30T07:14:17.643Z,99537.31
2022-08-30T07:15:22.893Z,99540.84
2022-08-30T07:16:25.791Z,99535.50
2022-08-30T07:17:47.064Z,99529.19
2022-08-30T07:18:54.693Z,99540.72
2022-08-30T07:19:57.642Z,99534.41
2022-08-30T07:21:07.696Z,99530.16
2022-08-30T07:22:10.258Z,99525.50
2022-08-30T07:23:13.125Z,99524.81
2022-08-30T07:24:16.295Z,99521.94
2022-08-30T07:25:19.971Z,99523.50
2022-08-30T07:26:35.768Z,99524.41
2022-08-30T07:27:38.477Z,99527.19
2022-08-30T07:28:44.072Z,99522.06
2022-08-30T07:29:48.547Z,99525.78
2022-08-30T07:30:51.098Z,99532.19
2022-08-30T07:31:53.585Z,99513.16
2022-08-30T07:32:56.183Z,99523.47
2022-08-30T07:33:58.952Z,99523.88
2022-08-30T07:35:02.149Z,99524.38
2022-08-30T07:36:05.493Z,99518.13
2022-08-30T07:37:08.333Z,99523.88
2022-08-30T07:38:15.016Z,99525.84
2022-08-30T07:39:17.527Z,99527.13
2022-08-30T07:40:20.485Z,99524.50
2022-08-30T07:41:29.414Z,99529.44
2022-08-30T07:42:31.869Z,99526.38
2022-08-30T07:43:35.650Z,99520.44
2022-08-30T07:44:37.973Z,99532.88
2022-08-30T07:45:40.343Z,99531.28
2022-08-30T07:46:42.786Z,99537.00
2022-08-30T07:47:46.749Z,99532.84
2022-08-30T07:48:50.263Z,99526.47
2022-08-30T07:49:53.090Z,99543.66
2022-08-30T07:50:59.013Z,99525.50
2022-08-30T07:52:04.384Z,99537.31
2022-08-30T07:53:09.358Z,99532.44
2022-08-30T07:54:14.695Z,99532.63
2022-08-30T07:55:18.132Z,99525.78
2022-08-30T07:56:21.596Z,99529.38
2022-08-30T07:57:24.611Z,99530.38
2022-08-30T07:58:27.152Z,99527.88
2022-08-30T07:59:31.867Z,99526.53
2022-08-30T08:00:36.637Z,99535.31
2022-08-30T08:01:39.041Z,99536.50
2022-08-30T08:02:42.427Z,99526.09
2022-08-30T08:03:46.640Z,99530.22
2022-08-30T08:04:48.959Z,99530.41
2022-08-30T08:05:53.077Z,99529.34
2022-08-30T08:06:56.152Z,99535.25
2022-08-30T08:07:58.370Z,99535.06
2022-08-30T08:09:02.334Z,99525.16
2022-08-30T08:10:05.161Z,99521.06
2022-08-30T08:11:16.249Z,99529.53
2022-08-30T08:12:18.913Z,99527.16
2022-08-30T08:13:21.284Z,99528.41
2022-08-30T08:14:23.709Z,99530.13
2022-08-30T08:15:26.662Z,99521.88
2022-08-30T08:16:31.021Z,99520.00
2022-08-30T08:17:34.036Z,99521.19
2022-08-30T08:18:36.906Z,99525.03
2022-08-30T08:19:39.804Z,99517.66
2022-08-30T08:20:42.952Z,99519.78
2022-08-30T08:21:46.067Z,99514.34
2022-08-30T08:22:48.916Z,99508.06
2022-08-30T08:23:51.737Z,99526.84
2022-08-30T08:24:54.239Z,99520.09
2022-08-30T08:25:56.808Z,99521.75
2022-08-30T08:26:59.149Z,99517.94
2022-08-30T08:28:02.050Z,99516.88
2022-08-30T08:29:07.524Z,99520.81
2022-08-30T08:30:10.468Z,99508.19
2022-08-30T08:31:34.274Z,99520.19
2022-08-30T08:32:37.108Z,99525.94
2022-08-30T08:33:39.413Z,99515.72
2022-08-30T08:34:42.004Z,99522.38
2022-08-30T08:35:45.755Z,99516.81
2022-08-30T08:36:48.963Z,99522.28
2022-08-30T08:37:51.250Z,99516.69
2022-08-30T08:38:53.801Z,99525.66
2022-08-30T08:39:56.091Z,99517.78
2022-08-30T08:41:35.835Z,99519.69
2022-08-30T08:43:05.257Z,99515.81
2022-08-30T08:44:16.237Z,99516.81
2022-08-30T08:45:47.467Z,99511.56
2022-08-30T08:47:31.876Z,99514.38
2022-08-30T08:48:59.926Z,99509.28
2022-08-30T08:50:07.048Z,99509.44
2022-08-30T08:51:30.529Z,99508.88
2022-08-30T08:53:03.862Z,99515.28
2022-08-30T08:54:20.133Z,99513.69
2022-08-30T08:55:24.157Z,99510.75
2022-08-30T08:56:26.710Z,99521.22
2022-08-30T08:57:37.198Z,99509.13
2022-08-30T08:58:47.648Z,99517.88
2022-08-30T08:59:54.098Z,99516.50
2022-08-30T09:00:58.170Z,99505.06
2022-08-30T09:02:03.133Z,99503.25
2022-08-30T09:03:05.574Z,99508.84
2022-08-30T09:04:15.785Z,99510.88
2022-08-30T09:05:22.342Z,99508.47
2022-08-30T09:06:38.450Z,99510.13
2022-08-30T09:07:57.212Z,99504.41
2022-08-30T09:08:59.651Z,99500.66
2022-08-30T09:10:02.520Z,99499.28
2022-08-30T09:11:11.098Z,99501.97
2022-08-30T09:12:13.812Z,99499.69
2022-08-30T09:13:16.991Z,99499.34
2022-08-30T09:14:34.793Z,99499.88
2022-08-30T09:15:37.158Z,99493.16
2022-08-30T09:17:24.309Z,99491.47
2022-08-30T09:18:56.397Z,99501.00
2022-08-30T09:20:00.466Z,99503.72
2022-08-30T09:21:06.998Z,99500.59
2022-08-30T09:22:31.923Z,99493.97
2022-08-30T09:23:34.528Z,99489.16
2022-08-30T09:24:46.233Z,99490.22
2022-08-30T09:25:55.613Z,99482.97
2022-08-30T09:27:23.977Z,99489.34
2022-08-30T09:28:49.457Z,99493.72
2022-08-30T09:29:56.386Z,99480.94
2022-08-30T09:31:26.236Z,99479.50
2022-08-30T09:32:35.467Z,99474.16
2022-08-30T09:33:38.007Z,99471.16
2022-08-30T09:34:43.525Z,99480.44
2022-08-30T09:35:52.074Z,99471.50
2022-08-30T09:36:56.501Z,99471.97
2022-08-30T09:38:05.908Z,99475.69
2022-08-30T09:39:33.382Z,99483.16
2022-08-30T09:40:45.572Z,99475.09
2022-08-30T09:41:50.335Z,99477.72
2022-08-30T09:43:05.083Z,99480.59
2022-08-30T09:44:14.562Z,99474.19
2022-08-30T09:45:30.325Z,99467.78
2022-08-30T09:46:32.756Z,99472.09
2022-08-30T09:47:35.398Z,99476.22
2022-08-30T09:48:42.273Z,99470.13
2022-08-30T09:49:44.772Z,99465.59
2022-08-30T09:50:55.021Z,99473.78
2022-08-30T09:52:16.799Z,99478.19
2022-08-30T09:53:28.237Z,99476.72
2022-08-30T09:54:55.194Z,99477.03
2022-08-30T09:56:12.422Z,99471.00
2022-08-30T09:57:33.510Z,99477.34
2022-08-30T09:59:08.096Z,99477.91
2022-08-30T10:00:17.766Z,99476.53
2022-08-30T10:01:53.312Z,99480.72
2022-08-30T10:02:58.280Z,99466.56
2022-08-30T10:04:37.349Z,99457.69
2022-08-30T10:05:48.627Z,99483.19
2022-08-30T10:07:15.667Z,99464.91
2022-08-30T10:08:36.406Z,99465.91
2022-08-30T10:10:02.890Z,99475.53
2022-08-30T10:11:12.279Z,99467.59
2022-08-30T10:12:26.512Z,99464.25
2022-08-30T10:14:08.129Z,99464.56
2022-08-30T10:15:26.846Z,99462.38
2022-08-30T10:16:33.545Z,99460.84
2022-08-30T10:18:02.699Z,99469.22
2022-08-30T10:19:23.371Z,99460.19
2022-08-30T10:20:41.736Z,99455.47
2022-08-30T10:21:52.244Z,99452.31
2022-08-30T10:23:09.869Z,99452.59
2022-08-30T10:24:21.025Z,99455.03
2022-08-30T10:25:34.924Z,99451.31
2022-08-30T10:26:51.696Z,99448.81
2022-08-30T10:28:03.554Z,99442.44
2022-08-30T10:29:16.093Z,99444.25
2022-08-30T10:30:18.786Z,99445.03
2022-08-30T10:31:29.087Z,99447.19
2022-08-30T10:32:41.719Z,99442.16
2022-08-30T10:33:52.572Z,99441.31
2022-08-30T10:35:39.133Z,99448.00
2022-08-30T10:36:47.024Z,99437.50
2022-08-30T10:37:58.004Z,99437.00
2022-08-30T10:39:02.390Z,99424.47
2022-08-30T10:40:41.558Z,99426.66
2022-08-30T10:41:54.997Z,99443.97
2022-08-30T10:43:01.222Z,99442.19
2022-08-30T10:44:18.524Z,99430.22
2022-08-30T10:45:22.125Z,99426.47
2022-08-30T10:47:01.340Z,99429.31
2022-08-30T10:48:13.908Z,99431.25
2022-08-30T10:49:21.281Z,99419.97
2022-08-30T10:50:29.602Z,99426.38
2022-08-30T10:51:35.832Z,99421.28
2022-08-30T10:52:59.376Z,99422.94
2022-08-30T10:54:18.574Z,99425.75
2022-08-30T10:55:33.392Z,99417.75
2022-08-30T10:56:40.489Z,99421.31
2022-08-30T10:57:43.642Z,99414.34
2022-08-30T10:58:46.868Z,99421.53
2022-08-30T10:59:57.376Z,99424.50
2022-08-30T11:01:12.400Z,99417.09
2022-08-30T11:02:33.521Z,99424.19
2022-08-30T11:04:09.216Z,99409.63
2022-08-30T11:05:42.086Z,99424.88
2022-08-30T11:07:02.599Z,99430.63
2022-08-30T11:08:09.841Z,99423.56
2022-08-30T11:09:52.573Z,99414.22
2022-08-30T11:11:33.151Z,99420.31
2022-08-30T11:12:49.137Z,99421.00
2022-08-30T11:13:55.818Z,99412.34
2022-08-30T11:15:11.208Z,99408.56
2022-08-30T11:16:16.527Z,99413.72
2022-08-30T11:17:35.713Z,99409.59
2022-08-30T11:18:57.693Z,99433.09
2022-08-30T11:20:02.608Z,99411.81
2022-08-30T11:21:33.510Z,99420.56
2022-08-30T11:22:39.266Z,99416.13
2022-08-30T11:23:41.677Z,99411.72
2022-08-30T11:25:10.171Z,99406.13
2022-08-30T11:26:50.902Z,99405.69
2022-08-30T11:27:59.000Z,99410.16
2022-08-30T11:29:05.221Z,99419.69
2022-08-30T11:30:27.423Z,99409.81
2022-08-30T11:31:38.206Z,99414.94
2022-08-30T11:33:00.670Z,99402.31
2022-08-30T11:34:05.867Z,99404.41
2022-08-30T11:35:11.187Z,99405.66
2022-08-30T11:36:28.977Z,99410.91
2022-08-30T11:37:43.103Z,99413.91
2022-08-30T11:38:46.902Z,99401.06
2022-08-30T11:39:49.302Z,99400.75
2022-08-30T11:40:54.231Z,99405.13
2022-08-30T11:42:29.525Z,99409.47
2022-08-30T11:43:49.986Z,99408.25
2022-08-30T11:44:52.620Z,99405.38
2022-08-30T11:46:19.372Z,99399.84
2022-08-30T11:47:49.813Z,99405.91
2022-08-30T11:48:57.263Z,99402.94
2022-08-30T11:50:13.396Z,99403.25
2022-08-30T11:51:40.916Z,99419.63
2022-08-30T11:53:14.285Z,99410.69
2022-08-30T11:54:25.329Z,99414.59
2022-08-30T11:55:52.057Z,99406.50
2022-08-30T11:56:59.977Z,99399.53
2022-08-30T11:58:27.087Z,99407.31
2022-08-30T11:59:53.230Z,99398.31
2022-08-30T12:01:51.025Z,99406.44
2022-08-30T12:02:59.508Z,99402.19
2022-08-30T12:04:16.980Z,99393.94
2022-08-30T12:05:40.833Z,99399.63
2022-08-30T12:06:54.425Z,99399.81
2022-08-30T12:08:02.399Z,99408.47
2022-08-30T12:09:08.159Z,99403.84
2022-08-30T12:10:24.376Z,99392.78
2022-08-30T12:11:33.210Z,99403.16
2022-08-30T12:12:38.146Z,99395.72
2022-08-30T12:13:42.816Z,99388.53
2022-08-30T12:14:57.533Z,99401.13
2022-08-30T12:16:05.569Z,99400.16
2022-08-30T12:17:42.318Z,99397.75
2022-08-30T12:19:00.093Z,99397.31
2022-08-30T12:20:04.874Z,99386.59
2022-08-30T12:21:20.263Z,99384.25
2022-08-30T12:22:23.847Z,99390.22
2022-08-30T12:23:56.969Z,99394.22
2022-08-30T12:24:59.746Z,99393.59
2022-08-30T12:26:10.970Z,99400.34
2022-08-30T12:27:32.736Z,99399.91
2022-08-30T12:28:35.273Z,99394.84
2022-08-30T12:29:52.021Z,99391.66
2022-08-30T12:30:54.427Z,99390.25
2022-08-30T12:32:14.939Z,99386.47
2022-08-30T12:33:36.569Z,99381.78
2022-08-30T12:34:43.510Z,99387.41
2022-08-30T12:35:45.820Z,99393.16
2022-08-30T12:36:55.002Z,99389.47
2022-08-30T12:38:05.875Z,99393.41
2022-08-30T12:39:18.058Z,99387.63
2022-08-30T12:40:23.189Z,99397.75
2022-08-30T12:41:25.919Z,99370.00
2022-08-30T12:42:31.579Z,99381.69
2022-08-30T12:43:40.562Z,99384.78
2022-08-30T12:44:45.244Z,99377.63
2022-08-30T12:45:50.772Z,99367.56
2022-08-30T12:47:00.288Z,99373.06
2022-08-30T12:48:10.930Z,99370.06
2022-08-30T12:49:15.817Z,99367.31
2022-08-30T12:50:26.176Z,99368.00
2022-08-30T12:51:35.367Z,99357.97
2022-08-30T12:52:41.139Z,99371.22
2022-08-30T12:53:47.038Z,99365.28
2022-08-30T12:54:56.829Z,99364.59
2022-08-30T12:56:07.170Z,99374.63
2022-08-30T12:57:34.675Z,99364.94
2022-08-30T12:58:43.504Z,99366.09
2022-08-30T12:59:54.242Z,99361.75
2022-08-30T13:01:28.671Z,99365.78
2022-08-30T13:02:47.115Z,99365.22
2022-08-30T13:04:01.145Z,99359.97
2022-08-30T13:05:34.197Z,99367.78
2022-08-30T13:06:42.247Z,99366.06
2022-08-30T13:07:45.447Z,99359.34
2022-08-30T13:08:51.722Z,99360.13
2022-08-30T13:10:20.111Z,99354.06
2022-08-30T13:11:22.551Z,99350.03
2022-08-30T13:12:27.677Z,99345.38
2022-08-30T13:13:45.672Z,99342.69
2022-08-30T13:15:19.911Z,99343.00
2022-08-30T13:16:26.734Z,99341.22